sensor_id;sensor_type;location;lat;lon;timestamp;pressure;altitude;pressure_sealevel;temperature;humidity
38225;BME280;24025;48.138;11.428;2024-03-02T00:00:37;94454.94;;;6.59;100.00
38225;BME280;24025;48.138;11.428;2024-03-02T00:03:11;94458.81;;;6.68;100.00
38225;BME280;24025;48.138;11.428;2024-03-02T00:05:51;94453.84;;;6.63;100.00
38225;BME280;24025;48.138;11.428;2024-03-02T00:08:25;94444.31;;;6.55;100.00
38225;BME280;24025;48.138;11.428;2024-03-02T00:11:00;94448.03;;;6.50;100.00
38225;BME280;24025;48.138;11.428;2024-03-02T00:13:34;94445.78;;;6.52;100.00
38225;BME280;24025;48.138;11.428;2024-03-02T00:16:07;94442.34;;;6.48;100.00
38225;BME280;24025;48.138;11.428;2024-03-02T00:18:38;94443.47;;;6.47;100.00
38225;BME280;24025;48.138;11.428;2024-03-02T00:21:10;94435.84;;;6.42;100.00
38225;BME280;24025;48.138;11.428;2024-03-02T00:23:42;94441.19;;;6.46;100.00
38225;BME280;24025;48.138;11.428;2024-03-02T00:26:14;94438.94;;;6.48;100.00
38225;BME280;24025;48.138;11.428;2024-03-02T00:28:47;94432.81;;;6.44;100.00
38225;BME280;24025;48.138;11.428;2024-03-02T00:31:21;94433.56;;;6.44;100.00
38225;BME280;24025;48.138;11.428;2024-03-02T00:33:53;94423.78;;;6.45;100.00
38225;BME280;24025;48.138;11.428;2024-03-02T00:36:26;94422.19;;;6.37;100.00
38225;BME280;24025;48.138;11.428;2024-03-02T00:38:58;94423.34;;;6.39;100.00
38225;BME280;24025;48.138;11.428;2024-03-02T00:41:31;94414.19;;;6.33;100.00
38225;BME280;24025;48.138;11.428;2024-03-02T00:44:07;94420.59;;;6.32;100.00
38225;BME280;24025;48.138;11.428;2024-03-02T00:46:41;94427.47;;;6.37;100.00
38225;BME280;24025;48.138;11.428;2024-03-02T00:49:23;94436.03;;;6.27;100.00
38225;BME280;24025;48.138;11.428;2024-03-02T00:51:55;94438.38;;;6.32;100.00
38225;BME280;24025;48.138;11.428;2024-03-02T00:54:27;94436.09;;;6.30;100.00
38225;BME280;24025;48.138;11.428;2024-03-02T00:57:00;94439.88;;;6.33;100.00
38225;BME280;24025;48.138;11.428;2024-03-02T00:59:32;94441.41;;;6.34;100.00
38225;BME280;24025;48.138;11.428;2024-03-02T01:02:04;94447.47;;;6.34;100.00
38225;BME280;24025;48.138;11.428;2024-03-02T01:04:35;94442.16;;;6.34;100.00
38225;BME280;24025;48.138;11.428;2024-03-02T01:07:07;94442.94;;;6.35;100.00
38225;BME280;24025;48.138;11.428;2024-03-02T01:09:38;94439.13;;;6.32;100.00
38225;BME280;24025;48.138;11.428;2024-03-02T01:12:10;94428.91;;;6.31;100.00
38225;BME280;24025;48.138;11.428;2024-03-02T01:14:42;94433.84;;;6.32;100.00
38225;BME280;24025;48.138;11.428;2024-03-02T01:17:13;94433.84;;;6.32;100.00
38225;BME280;24025;48.138;11.428;2024-03-02T01:19:45;94430.81;;;6.34;100.00
38225;BME280;24025;48.138;11.428;2024-03-02T01:22:17;94433.81;;;6.29;100.00
38225;BME280;24025;48.138;11.428;2024-03-02T01:24:54;94437.59;;;6.31;100.00
38225;BME280;24025;48.138;11.428;2024-03-02T01:27:26;94433.34;;;6.23;100.00
38225;BME280;24025;48.138;11.428;2024-03-02T01:29:58;94431.94;;;6.33;100.00
38225;BME280;24025;48.138;11.428;2024-03-02T01:32:31;94435.34;;;6.33;100.00
38225;BME280;24025;48.138;11.428;2024-03-02T01:35:02;94438.41;;;6.35;100.00
38225;BME280;24025;48.138;11.428;2024-03-02T01:37:34;94433.00;;;6.24;100.00
38225;BME280;24025;48.138;11.428;2024-03-02T01:40:06;94436.50;;;6.36;100.00
38225;BME280;24025;48.138;11.428;2024-03-02T01:42:40;94429.34;;;6.36;100.00
38225;BME280;24025;48.138;11.428;2024-03-02T01:45:12;94429.97;;;6.26;100.00
38225;BME280;24025;48.138;11.428;2024-03-02T01:47:44;94422.19;;;6.37;100.00
38225;BME280;24025;48.138;11.428;2024-03-02T01:50:16;94425.16;;;6.35;100.00
38225;BME280;24025;48.138;11.428;2024-03-02T01:52:56;94421.00;;;6.34;100.00
38225;BME280;24025;48.138;11.428;2024-03-02T01:55:27;94414.16;;;6.30;100.00
38225;BME280;24025;48.138;11.428;2024-03-02T01:58:01;94419.16;;;6.38;100.00
38225;BME280;24025;48.138;11.428;2024-03-02T02:00:33;94412.38;;;6.41;100.00
38225;BME280;24025;48.138;11.428;2024-03-02T02:03:05;94415.00;;;6.37;100.00
38225;BME280;24025;48.138;11.428;2024-03-02T02:05:38;94413.13;;;6.41;100.00
38225;BME280;24025;48.138;11.428;2024-03-02T02:08:09;94412.28;;;6.34;100.00
38225;BME280;24025;48.138;11.428;2024-03-02T02:10:41;94406.63;;;6.35;100.00
38225;BME280;24025;48.138;11.428;2024-03-02T02:13:13;94405.84;;;6.31;100.00
38225;BME280;24025;48.138;11.428;2024-03-02T02:15:45;94402.81;;;6.33;100.00
38225;BME280;24025;48.138;11.428;2024-03-02T02:18:16;94399.81;;;6.34;100.00
38225;BME280;24025;48.138;11.428;2024-03-02T02:20:48;94402.50;;;6.38;100.00
38225;BME280;24025;48.138;11.428;2024-03-02T02:23:19;94396.00;;;6.32;100.00
38225;BME280;24025;48.138;11.428;2024-03-02T02:25:51;94400.19;;;6.33;100.00
38225;BME280;24025;48.138;11.428;2024-03-02T02:28:23;94411.97;;;6.39;100.00
38225;BME280;24025;48.138;11.428;2024-03-02T02:30:55;94401.78;;;6.41;100.00
38225;BME280;24025;48.138;11.428;2024-03-02T02:33:27;94403.94;;;6.32;100.00
38225;BME280;24025;48.138;11.428;2024-03-02T02:35:59;94408.03;;;6.25;100.00
38225;BME280;24025;48.138;11.428;2024-03-02T02:38:32;94404.25;;;6.27;100.00
38225;BME280;24025;48.138;11.428;2024-03-02T02:41:05;94405.38;;;6.22;100.00
38225;BME280;24025;48.138;11.428;2024-03-02T02:43:36;94411.03;;;6.20;100.00
38225;BME280;24025;48.138;11.428;2024-03-02T02:46:08;94415.94;;;6.18;100.00
38225;BME280;24025;48.138;11.428;2024-03-02T02:48:40;94406.38;;;6.10;100.00
38225;BME280;24025;48.138;11.428;2024-03-02T02:51:11;94408.13;;;5.99;100.00
38225;BME280;24025;48.138;11.428;2024-03-02T02:53:43;94405.84;;;5.97;100.00
38225;BME280;24025;48.138;11.428;2024-03-02T02:56:15;94405.53;;;6.03;100.00
38225;BME280;24025;48.138;11.428;2024-03-02T02:58:46;94405.25;;;6.11;100.00
38225;BME280;24025;48.138;11.428;2024-03-02T03:01:18;94403.03;;;6.17;100.00
38225;BME280;24025;48.138;11.428;2024-03-02T03:03:49;94408.78;;;6.22;100.00
38225;BME280;24025;48.138;11.428;2024-03-02T03:06:21;94402.72;;;6.22;100.00
38225;BME280;24025;48.138;11.428;2024-03-02T03:08:53;94397.88;;;6.28;100.00
38225;BME280;24025;48.138;11.428;2024-03-02T03:11:24;94394.50;;;6.31;100.00
38225;BME280;24025;48.138;11.428;2024-03-02T03:13:58;94395.28;;;6.35;100.00
38225;BME280;24025;48.138;11.428;2024-03-02T03:16:31;94401.63;;;6.27;100.00
38225;BME280;24025;48.138;11.428;2024-03-02T03:19:03;94403.16;;;6.28;100.00
38225;BME280;24025;48.138;11.428;2024-03-02T03:21:34;94401.22;;;6.24;100.00
38225;BME280;24025;48.138;11.428;2024-03-02T03:24:06;94403.94;;;6.28;100.00
38225;BME280;24025;48.138;11.428;2024-03-02T03:26:38;94399.34;;;6.25;100.00
38225;BME280;24025;48.138;11.428;2024-03-02T03:29:09;94395.16;;;6.24;100.00
38225;BME280;24025;48.138;11.428;2024-03-02T03:31:41;94394.66;;;6.11;100.00
38225;BME280;24025;48.138;11.428;2024-03-02T03:34:12;94402.28;;;6.16;100.00
38225;BME280;24025;48.138;11.428;2024-03-02T03:36:47;94403.00;;;6.13;100.00
38225;BME280;24025;48.138;11.428;2024-03-02T03:39:18;94404.97;;;6.20;100.00
38225;BME280;24025;48.138;11.428;2024-03-02T03:41:50;94408.47;;;6.28;100.00
38225;BME280;24025;48.138;11.428;2024-03-02T03:44:22;94413.75;;;6.28;100.00
38225;BME280;24025;48.138;11.428;2024-03-02T03:46:54;94405.44;;;6.29;100.00
38225;BME280;24025;48.138;11.428;2024-03-02T03:49:25;94407.72;;;6.31;100.00
38225;BME280;24025;48.138;11.428;2024-03-02T03:51:57;94403.94;;;6.28;100.00
38225;BME280;24025;48.138;11.428;2024-03-02T03:54:28;94406.97;;;6.30;100.00
38225;BME280;24025;48.138;11.428;2024-03-02T03:57:00;94403.16;;;6.28;100.00
38225;BME280;24025;48.138;11.428;2024-03-02T03:59:32;94409.91;;;6.21;100.00
38225;BME280;24025;48.138;11.428;2024-03-02T04:02:03;94413.34;;;6.25;100.00
38225;BME280;24025;48.138;11.428;2024-03-02T04:04:35;94411.03;;;6.20;100.00
38225;BME280;24025;48.138;11.428;2024-03-02T04:07:07;94416.97;;;6.10;100.00
38225;BME280;24025;48.138;11.428;2024-03-02T04:09:38;94421.63;;;6.20;100.00
38225;BME280;24025;48.138;11.428;2024-03-02T04:12:10;94426.19;;;6.27;100.00
38225;BME280;24025;48.138;11.428;2024-03-02T04:14:44;94429.19;;;6.22;100.00
38225;BME280;24025;48.138;11.428;2024-03-02T04:17:16;94433.63;;;6.14;100.00
38225;BME280;24025;48.138;11.428;2024-03-02T04:19:47;94439.75;;;6.18;100.00
38225;BME280;24025;48.138;11.428;2024-03-02T04:22:19;94439.31;;;6.16;100.00
38225;BME280;24025;48.138;11.428;2024-03-02T04:24:56;94441.97;;;6.16;100.00
38225;BME280;24025;48.138;11.428;2024-03-02T04:27:27;94440.53;;;6.22;100.00
38225;BME280;24025;48.138;11.428;2024-03-02T04:29:59;94448.44;;;6.19;100.00
38225;BME280;24025;48.138;11.428;2024-03-02T04:32:31;94448.78;;;6.17;100.00
38225;BME280;24025;48.138;11.428;2024-03-02T04:35:03;94445.38;;;6.17;100.00
38225;BME280;24025;48.138;11.428;2024-03-02T04:37:35;94441.25;;;6.19;100.00
38225;BME280;24025;48.138;11.428;2024-03-02T04:40:07;94452.28;;;6.25;100.00
38225;BME280;24025;48.138;11.428;2024-03-02T04:42:42;94450.09;;;6.31;100.00
38225;BME280;24025;48.138;11.428;2024-03-02T04:45:14;94448.19;;;6.31;100.00
38225;BME280;24025;48.138;11.428;2024-03-02T04:47:46;94452.38;;;6.32;100.00
38225;BME280;24025;48.138;11.428;2024-03-02T04:50:20;94452.06;;;6.37;100.00
38225;BME280;24025;48.138;11.428;2024-03-02T04:52:52;94445.19;;;6.33;100.00
38225;BME280;24025;48.138;11.428;2024-03-02T04:55:23;94454.63;;;6.30;100.00
38225;BME280;24025;48.138;11.428;2024-03-02T04:58:15;94455.03;;;6.36;100.00
38225;BME280;24025;48.138;11.428;2024-03-02T05:00:46;94458.06;;;6.34;100.00
38225;BME280;24025;48.138;11.428;2024-03-02T05:03:18;94462.38;;;6.16;100.00
38225;BME280;24025;48.138;11.428;2024-03-02T05:05:50;94466.16;;;6.15;100.00
38225;BME280;24025;48.138;11.428;2024-03-02T05:08:21;94463.13;;;6.16;100.00
38225;BME280;24025;48.138;11.428;2024-03-02T05:10:53;94469.47;;;6.08;100.00
38225;BME280;24025;48.138;11.428;2024-03-02T05:13:25;94466.06;;;6.08;100.00
38225;BME280;24025;48.138;11.428;2024-03-02T05:15:56;94472.94;;;6.12;100.00
38225;BME280;24025;48.138;11.428;2024-03-02T05:18:28;94468.44;;;6.16;100.00
38225;BME280;24025;48.138;11.428;2024-03-02T05:20:59;94469.63;;;6.19;100.00
38225;BME280;24025;48.138;11.428;2024-03-02T05:23:31;94471.34;;;6.08;100.00
38225;BME280;24025;48.138;11.428;2024-03-02T05:26:03;94473.28;;;6.11;100.00
38225;BME280;24025;48.138;11.428;2024-03-02T05:28:36;94479.91;;;5.97;100.00
38225;BME280;24025;48.138;11.428;2024-03-02T05:31:11;94478.03;;;5.98;100.00
38225;BME280;24025;48.138;11.428;2024-03-02T05:33:43;94469.44;;;6.05;100.00
38225;BME280;24025;48.138;11.428;2024-03-02T05:36:15;94467.94;;;6.07;100.00
38225;BME280;24025;48.138;11.428;2024-03-02T05:38:47;94464.22;;;6.12;100.00
38225;BME280;24025;48.138;11.428;2024-03-02T05:41:18;94473.72;;;6.16;100.00
38225;BME280;24025;48.138;11.428;2024-03-02T05:43:50;94480.53;;;6.17;100.00
38225;BME280;24025;48.138;11.428;2024-03-02T05:46:22;94486.19;;;6.16;100.00
38225;BME280;24025;48.138;11.428;2024-03-02T05:48:53;94475.97;;;6.14;100.00
38225;BME280;24025;48.138;11.428;2024-03-02T05:51:25;94480.91;;;6.16;100.00
38225;BME280;24025;48.138;11.428;2024-03-02T05:53:56;94477.13;;;6.17;100.00
38225;BME280;24025;48.138;11.428;2024-03-02T05:56:28;94485.94;;;5.94;100.00
38225;BME280;24025;48.138;11.428;2024-03-02T05:59:00;94485.44;;;5.89;100.00
38225;BME280;24025;48.138;11.428;2024-03-02T06:01:34;94473.56;;;6.02;100.00
38225;BME280;24025;48.138;11.428;2024-03-02T06:04:06;94472.06;;;6.05;100.00
38225;BME280;24025;48.138;11.428;2024-03-02T06:06:38;94480.03;;;6.08;100.00
38225;BME280;24025;48.138;11.428;2024-03-02T06:09:10;94472.16;;;6.12;100.00
38225;BME280;24025;48.138;11.428;2024-03-02T06:11:44;94475.56;;;6.12;100.00
38225;BME280;24025;48.138;11.428;2024-03-02T06:14:15;94469.81;;;6.07;100.00
38225;BME280;24025;48.138;11.428;2024-03-02T06:16:47;94467.56;;;6.09;100.00
38225;BME280;24025;48.138;11.428;2024-03-02T06:19:18;94472.84;;;6.05;100.00
38225;BME280;24025;48.138;11.428;2024-03-02T06:21:50;94466.78;;;6.05;100.00
38225;BME280;24025;48.138;11.428;2024-03-02T06:24:22;94469.06;;;6.06;100.00
38225;BME280;24025;48.138;11.428;2024-03-02T06:26:53;94470.56;;;6.04;100.00
38225;BME280;24025;48.138;11.428;2024-03-02T06:29:25;94473.63;;;6.09;100.00
38225;BME280;24025;48.138;11.428;2024-03-02T06:31:56;94475.75;;;5.96;100.00
38225;BME280;24025;48.138;11.428;2024-03-02T06:34:28;94481.41;;;5.95;100.00
38225;BME280;24025;48.138;11.428;2024-03-02T06:36:59;94483.31;;;5.98;100.00
38225;BME280;24025;48.138;11.428;2024-03-02T06:39:31;94478.13;;;6.05;100.00
38225;BME280;24025;48.138;11.428;2024-03-02T06:42:05;94468.31;;;6.06;100.00
38225;BME280;24025;48.138;11.428;2024-03-02T06:44:37;94467.16;;;6.03;100.00
38225;BME280;24025;48.138;11.428;2024-03-02T06:47:08;94468.97;;;5.99;100.00
38225;BME280;24025;48.138;11.428;2024-03-02T06:49:40;94467.41;;;5.94;100.00
38225;BME280;24025;48.138;11.428;2024-03-02T06:52:11;94464.81;;;5.98;100.00
38225;BME280;24025;48.138;11.428;2024-03-02T06:54:43;94474.31;;;6.03;100.00
38225;BME280;24025;48.138;11.428;2024-03-02T06:57:15;94473.13;;;6.00;100.00
38225;BME280;24025;48.138;11.428;2024-03-02T06:59:48;94471.31;;;6.04;100.00
38225;BME280;24025;48.138;11.428;2024-03-02T07:02:22;94473.50;;;5.99;100.00
38225;BME280;24025;48.138;11.428;2024-03-02T07:04:54;94469.28;;;5.94;100.00
38225;BME280;24025;48.138;11.428;2024-03-02T07:07:26;94472.97;;;5.89;100.00
38225;BME280;24025;48.138;11.428;2024-03-02T07:09:57;94476.38;;;5.90;100.00
38225;BME280;24025;48.138;11.428;2024-03-02T07:12:29;94467.44;;;5.98;100.00
38225;BME280;24025;48.138;11.428;2024-03-02T07:15:02;94470.91;;;6.02;100.00
38225;BME280;24025;48.138;11.428;2024-03-02T07:17:36;94471.72;;;6.06;100.00
38225;BME280;24025;48.138;11.428;2024-03-02T07:20:09;94477.00;;;6.06;100.00
38225;BME280;24025;48.138;11.428;2024-03-02T07:22:40;94478.25;;;6.16;100.00
38225;BME280;24025;48.138;11.428;2024-03-02T07:25:15;94482.13;;;6.22;100.00
38225;BME280;24025;48.138;11.428;2024-03-02T07:27:50;94483.69;;;6.27;100.00
38225;BME280;24025;48.138;11.428;2024-03-02T07:30:22;94481.84;;;6.31;100.00
38225;BME280;24025;48.138;11.428;2024-03-02T07:32:53;94484.97;;;6.36;100.00
38225;BME280;24025;48.138;11.428;2024-03-02T07:35:26;94484.59;;;6.38;100.00
38225;BME280;24025;48.138;11.428;2024-03-02T07:37:59;94489.25;;;6.48;100.00
38225;BME280;24025;48.138;11.428;2024-03-02T07:40:30;94493.88;;;6.55;100.00
38225;BME280;24025;48.138;11.428;2024-03-02T07:43:02;94485.88;;;6.51;100.00
38225;BME280;24025;48.138;11.428;2024-03-02T07:45:34;94488.47;;;6.47;100.00
38225;BME280;24025;48.138;11.428;2024-03-02T07:48:07;94488.19;;;6.56;100.00
38225;BME280;24025;48.138;11.428;2024-03-02T07:50:39;94491.28;;;6.62;100.00
38225;BME280;24025;48.138;11.428;2024-03-02T07:53:11;94484.25;;;6.76;100.00
38225;BME280;24025;48.138;11.428;2024-03-02T07:55:43;94492.66;;;6.86;100.00
38225;BME280;24025;48.138;11.428;2024-03-02T07:58:14;94495.31;;;6.86;100.00
38225;BME280;24025;48.138;11.428;2024-03-02T08:00:46;94495.84;;;6.98;100.00
38225;BME280;24025;48.138;11.428;2024-03-02T08:03:18;94495.78;;;6.95;100.00
38225;BME280;24025;48.138;11.428;2024-03-02T08:05:50;94496.22;;;7.00;100.00
38225;BME280;24025;48.138;11.428;2024-03-02T08:08:22;94497.00;;;7.04;100.00
38225;BME280;24025;48.138;11.428;2024-03-02T08:10:53;94501.25;;;7.09;100.00
38225;BME280;24025;48.138;11.428;2024-03-02T08:13:25;94499.38;;;7.13;100.00
38225;BME280;24025;48.138;11.428;2024-03-02T08:15:57;94500.59;;;7.23;100.00
38225;BME280;24025;48.138;11.428;2024-03-02T08:18:29;94501.13;;;6.98;100.00
38225;BME280;24025;48.138;11.428;2024-03-02T08:21:01;94502.91;;;7.28;100.00
38225;BME280;24025;48.138;11.428;2024-03-02T08:23:33;94507.22;;;7.43;99.90
38225;BME280;24025;48.138;11.428;2024-03-02T08:26:05;94509.06;;;7.35;99.60
38225;BME280;24025;48.138;11.428;2024-03-02T08:28:37;94510.53;;;7.33;100.00
38225;BME280;24025;48.138;11.428;2024-03-02T08:31:09;94517.53;;;7.52;99.71
38225;BME280;24025;48.138;11.428;2024-03-02T08:33:41;94511.19;;;7.67;97.38
38225;BME280;24025;48.138;11.428;2024-03-02T08:36:13;94507.56;;;7.42;98.05
38225;BME280;24025;48.138;11.428;2024-03-02T08:38:45;94514.97;;;7.66;96.88
38225;BME280;24025;48.138;11.428;2024-03-02T08:41:17;94509.41;;;7.85;95.58
38225;BME280;24025;48.138;11.428;2024-03-02T08:43:49;94504.25;;;8.07;95.94
38225;BME280;24025;48.138;11.428;2024-03-02T08:46:21;94505.88;;;8.29;94.68
38225;BME280;24025;48.138;11.428;2024-03-02T08:48:52;94509.81;;;8.49;94.40
38225;BME280;24025;48.138;11.428;2024-03-02T08:51:24;94510.13;;;8.37;92.25
38225;BME280;24025;48.138;11.428;2024-03-02T08:53:56;94513.25;;;8.61;89.71
38225;BME280;24025;48.138;11.428;2024-03-02T08:56:30;94514.69;;;8.40;90.39
38225;BME280;24025;48.138;11.428;2024-03-02T08:59:01;94505.63;;;8.56;91.44
38225;BME280;24025;48.138;11.428;2024-03-02T09:01:33;94497.78;;;8.91;91.29
38225;BME280;24025;48.138;11.428;2024-03-02T09:04:05;94501.63;;;9.12;89.90
38225;BME280;24025;48.138;11.428;2024-03-02T09:06:36;94505.06;;;9.23;89.16
38225;BME280;24025;48.138;11.428;2024-03-02T09:09:08;94509.59;;;9.08;88.48
38225;BME280;24025;48.138;11.428;2024-03-02T09:11:40;94503.91;;;9.02;89.16
38225;BME280;24025;48.138;11.428;2024-03-02T09:14:11;94507.75;;;9.37;87.67
38225;BME280;24025;48.138;11.428;2024-03-02T09:16:43;94512.63;;;8.92;87.65
38225;BME280;24025;48.138;11.428;2024-03-02T09:19:15;94512.72;;;9.46;87.79
38225;BME280;24025;48.138;11.428;2024-03-02T09:21:47;94507.00;;;9.54;84.59
38225;BME280;24025;48.138;11.428;2024-03-02T09:24:19;94512.69;;;9.92;85.72
38225;BME280;24025;48.138;11.428;2024-03-02T09:26:51;94504.66;;;10.13;84.61
38225;BME280;24025;48.138;11.428;2024-03-02T09:29:22;94510.72;;;10.32;82.43
38225;BME280;24025;48.138;11.428;2024-03-02T09:31:54;94497.06;;;10.26;83.10
38225;BME280;24025;48.138;11.428;2024-03-02T09:34:26;94499.34;;;10.06;82.42
38225;BME280;24025;48.138;11.428;2024-03-02T09:36:57;94493.94;;;10.42;82.81
38225;BME280;24025;48.138;11.428;2024-03-02T09:39:30;94502.91;;;10.84;80.71
38225;BME280;24025;48.138;11.428;2024-03-02T09:42:03;94495.19;;;11.07;82.00
38225;BME280;24025;48.138;11.428;2024-03-02T09:44:35;94496.31;;;11.13;81.92
38225;BME280;24025;48.138;11.428;2024-03-02T09:47:07;94486.94;;;11.43;80.57
38225;BME280;24025;48.138;11.428;2024-03-02T09:49:40;94484.91;;;11.61;77.27
38225;BME280;24025;48.138;11.428;2024-03-02T09:52:12;94493.22;;;11.70;78.48
38225;BME280;24025;48.138;11.428;2024-03-02T09:54:47;94487.06;;;11.73;78.45
38225;BME280;24025;48.138;11.428;2024-03-02T09:57:19;94490.06;;;11.30;78.75
38225;BME280;24025;48.138;11.428;2024-03-02T09:59:50;94490.78;;;11.90;77.85
38225;BME280;24025;48.138;11.428;2024-03-02T10:02:22;94479.34;;;11.38;74.99
38225;BME280;24025;48.138;11.428;2024-03-02T10:04:54;94480.16;;;11.83;76.58
38225;BME280;24025;48.138;11.428;2024-03-02T10:07:26;94481.03;;;11.69;76.05
38225;BME280;24025;48.138;11.428;2024-03-02T10:09:57;94479.06;;;11.77;76.42
38225;BME280;24025;48.138;11.428;2024-03-02T10:12:30;94477.81;;;12.26;77.73
38225;BME280;24025;48.138;11.428;2024-03-02T10:15:05;94473.50;;;12.36;76.71
38225;BME280;24025;48.138;11.428;2024-03-02T10:17:37;94484.13;;;12.43;75.44
38225;BME280;24025;48.138;11.428;2024-03-02T10:20:29;94478.16;;;12.32;74.18
38225;BME280;24025;48.138;11.428;2024-03-02T10:23:15;94470.03;;;12.73;74.18
38225;BME280;24025;48.138;11.428;2024-03-02T10:25:47;94478.66;;;12.54;73.49
38225;BME280;24025;48.138;11.428;2024-03-02T10:28:28;94473.25;;;12.91;74.73
38225;BME280;24025;48.138;11.428;2024-03-02T10:31:01;94468.41;;;13.10;71.68
38225;BME280;24025;48.138;11.428;2024-03-02T10:33:33;94465.25;;;13.15;71.02
38225;BME280;24025;48.138;11.428;2024-03-02T10:36:05;94465.22;;;13.45;67.74
38225;BME280;24025;48.138;11.428;2024-03-02T10:38:36;94468.66;;;13.46;68.34
38225;BME280;24025;48.138;11.428;2024-03-02T10:41:08;94459.34;;;13.77;67.43
38225;BME280;24025;48.138;11.428;2024-03-02T10:43:40;94452.78;;;13.35;66.28
38225;BME280;24025;48.138;11.428;2024-03-02T10:46:12;94458.28;;;12.94;67.27
38225;BME280;24025;48.138;11.428;2024-03-02T10:48:46;94452.63;;;13.42;68.82
38225;BME280;24025;48.138;11.428;2024-03-02T10:51:17;94447.56;;;13.24;65.37
38225;BME280;24025;48.138;11.428;2024-03-02T10:53:49;94444.50;;;13.73;65.83
38225;BME280;24025;48.138;11.428;2024-03-02T10:56:32;94433.38;;;13.98;65.54
38225;BME280;24025;48.138;11.428;2024-03-02T11:01:38;94430.69;;;13.98;63.50
38225;BME280;24025;48.138;11.428;2024-03-02T11:04:12;94431.44;;;13.98;62.86
38225;BME280;24025;48.138;11.428;2024-03-02T11:06:50;94425.47;;;13.67;62.18
38225;BME280;24025;48.138;11.428;2024-03-02T11:09:25;94424.41;;;14.04;63.42
38225;BME280;24025;48.138;11.428;2024-03-02T11:12:03;94414.22;;;13.96;63.92
38225;BME280;24025;48.138;11.428;2024-03-02T11:14:41;94411.72;;;14.28;62.79
38225;BME280;24025;48.138;11.428;2024-03-02T11:17:15;94400.84;;;14.55;61.37
38225;BME280;24025;48.138;11.428;2024-03-02T11:19:47;94403.69;;;14.48;62.38
38225;BME280;24025;48.138;11.428;2024-03-02T11:22:19;94400.28;;;15.00;59.35
38225;BME280;24025;48.138;11.428;2024-03-02T11:24:52;94389.31;;;14.74;60.06
38225;BME280;24025;48.138;11.428;2024-03-02T11:33:07;94379.66;;;15.29;57.01
38225;BME280;24025;48.138;11.428;2024-03-02T11:35:44;94374.72;;;15.12;58.95
38225;BME280;24025;48.138;11.428;2024-03-02T11:38:20;94375.81;;;14.42;58.21
38225;BME280;24025;48.138;11.428;2024-03-02T11:40:51;94374.94;;;15.17;57.44
38225;BME280;24025;48.138;11.428;2024-03-02T11:43:25;94371.88;;;14.66;57.02
38225;BME280;24025;48.138;11.428;2024-03-02T11:46:00;94373.44;;;15.33;57.42
38225;BME280;24025;48.138;11.428;2024-03-02T11:48:32;94361.25;;;15.44;56.42
38225;BME280;24025;48.138;11.428;2024-03-02T11:51:04;94362.97;;;15.83;56.38
38225;BME280;24025;48.138;11.428;2024-03-02T11:53:38;94357.97;;;16.27;54.99
38225;BME280;24025;48.138;11.428;2024-03-02T11:56:11;94355.09;;;16.05;54.58
38225;BME280;24025;48.138;11.428;2024-03-02T11:58:44;94345.69;;;16.52;55.20
38225;BME280;24025;48.138;11.428;2024-03-02T12:01:16;94339.81;;;16.57;53.24
38225;BME280;24025;48.138;11.428;2024-03-02T12:03:48;94336.56;;;15.66;54.35
38225;BME280;24025;48.138;11.428;2024-03-02T12:06:20;94328.31;;;16.02;56.38
38225;BME280;24025;48.138;11.428;2024-03-02T12:08:53;94336.13;;;16.38;55.86
38225;BME280;24025;48.138;11.428;2024-03-02T12:11:26;94329.50;;;16.81;53.20
38225;BME280;24025;48.138;11.428;2024-03-02T12:13:57;94321.06;;;17.04;52.59
38225;BME280;24025;48.138;11.428;2024-03-02T12:16:30;94310.53;;;16.97;51.48
38225;BME280;24025;48.138;11.428;2024-03-02T12:19:01;94315.59;;;16.95;52.85
38225;BME280;24025;48.138;11.428;2024-03-02T12:21:33;94315.28;;;16.80;51.87
38225;BME280;24025;48.138;11.428;2024-03-02T12:24:05;94297.06;;;16.97;53.46
38225;BME280;24025;48.138;11.428;2024-03-02T12:26:37;94302.69;;;17.37;51.78
38225;BME280;24025;48.138;11.428;2024-03-02T12:29:09;94297.13;;;17.19;52.16
38225;BME280;24025;48.138;11.428;2024-03-02T12:31:44;94284.72;;;17.56;50.41
38225;BME280;24025;48.138;11.428;2024-03-02T12:34:19;94280.34;;;17.02;50.99
38225;BME280;24025;48.138;11.428;2024-03-02T12:36:51;94277.91;;;16.82;51.25
38225;BME280;24025;48.138;11.428;2024-03-02T12:39:24;94280.25;;;16.42;54.49
38225;BME280;24025;48.138;11.428;2024-03-02T12:41:56;94269.31;;;17.22;51.23
38225;BME280;24025;48.138;11.428;2024-03-02T12:44:28;94268.31;;;17.41;50.20
38225;BME280;24025;48.138;11.428;2024-03-02T12:46:59;94264.50;;;17.04;51.10
38225;BME280;24025;48.138;11.428;2024-03-02T12:49:32;94258.16;;;17.67;49.44
38225;BME280;24025;48.138;11.428;2024-03-02T12:52:04;94259.66;;;17.68;48.69
38225;BME280;24025;48.138;11.428;2024-03-02T12:54:36;94256.31;;;18.70;49.38
38225;BME280;24025;48.138;11.428;2024-03-02T12:57:08;94254.06;;;19.55;46.68
38225;BME280;24025;48.138;11.428;2024-03-02T12:59:45;94249.66;;;21.11;41.54
38225;BME280;24025;48.138;11.428;2024-03-02T13:02:18;94235.72;;;23.66;40.34
38225;BME280;24025;48.138;11.428;2024-03-02T13:04:53;94242.91;;;25.75;38.18
38225;BME280;24025;48.138;11.428;2024-03-02T13:07:28;94223.56;;;27.07;31.83
38225;BME280;24025;48.138;11.428;2024-03-02T13:10:00;94224.47;;;29.16;28.92
38225;BME280;24025;48.138;11.428;2024-03-02T13:12:34;94219.94;;;29.38;28.31
38225;BME280;24025;48.138;11.428;2024-03-02T13:15:08;94219.19;;;30.95;25.77
38225;BME280;24025;48.138;11.428;2024-03-02T13:17:40;94212.88;;;32.22;25.65
38225;BME280;24025;48.138;11.428;2024-03-02T13:20:11;94207.84;;;31.52;25.02
38225;BME280;24025;48.138;11.428;2024-03-02T13:22:45;94208.13;;;31.62;23.91
38225;BME280;24025;48.138;11.428;2024-03-02T13:25:17;94207.50;;;32.79;23.38